Time;durP1;ratioP1;P1;durP2;ratioP2;P2;SDS_P1;SDS_P2;PMS_P1;PMS_P2;Temp;Humidity;BMP_temperature;BMP_pressure;BME280_temperature;BME280_humidity;BME280_pressure;Samples;Min_cycle;Max_cycle;Signal;HPM_P1;HPM_P2
2021/01/23 00:04:03;;;;;;;;;;;5.60;96.80;;;3.30;75.46;93096.94;10378345;28;1793;-85
2021/01/23 00:09:05;;;;;;;;;;;4.30;96.80;;;3.34;75.45;93119.19;10363052;28;1958;-86
2021/01/23 00:14:07;;;;;;;;;;;4.30;97.20;;;3.29;75.80;93124.59;10362936;28;1710;-87
2021/01/23 00:19:09;;;;;;;;;;;4.30;97.30;;;3.33;75.69;93136.22;10377099;28;1616;-85
2021/01/23 00:24:10;;;;;;;;;;;4.30;97.40;;;3.35;75.96;93156.06;10373719;28;1850;-86
2021/01/23 00:29:12;;;;;;;;;;;4.40;97.60;;;3.35;76.08;93179.97;10357503;28;1960;-86
2021/01/23 00:34:14;;;;;;;;;;;4.80;97.70;;;3.37;76.65;93203.56;10355774;28;2138;-86
2021/01/23 00:39:16;;;;;;;;;;;5.20;98.40;;;3.45;76.18;93219.63;10337639;28;1997;-87
2021/01/23 00:44:18;;;;;;;;;;;4.60;98.20;;;3.46;76.43;93220.44;10333775;28;1690;-86
2021/01/23 00:49:20;;;;;;;;;;;4.50;98.40;;;3.34;76.97;93217.44;10334055;28;2007;-86
2021/01/23 00:54:22;;;;;;;;;;;4.40;98.70;;;3.32;77.08;93230.22;10348919;28;1670;-84
2021/01/23 00:59:24;;;;;;;;;;;5.80;99.90;;;3.25;77.75;93235.91;10333170;28;1907;-85
2021/01/23 01:04:26;;;;;;;;;;;4.80;99.90;;;3.21;78.86;93253.47;10325490;28;1987;-85
2021/01/23 01:09:28;;;;;;;;;;;5.70;99.90;;;3.18;79.90;93254.84;10349922;28;1882;-86
2021/01/23 01:14:29;;;;;;;;;;;5.60;99.90;;;3.23;80.89;93270.69;10359828;28;2025;-85
2021/01/23 01:19:31;;;;;;;;;;;6.30;99.90;;;3.36;81.10;93295.72;10337573;28;1795;-86
2021/01/23 01:24:33;;;;;;;;;;;4.30;99.90;;;3.44;81.25;93307.56;10345671;28;1751;-83
2021/01/23 01:29:35;;;;;;;;;;;5.30;99.90;;;3.55;81.22;93322.25;10346653;28;1966;-87
2021/01/23 01:34:37;;;;;;;;;;;4.40;99.90;;;3.55;82.74;93318.81;10313415;28;2004;-86
2021/01/23 01:39:40;;;;;;;;;;;4.50;99.90;;;3.49;83.36;93328.72;10378303;28;1927;-86
2021/01/23 01:44:41;;;;;;;;;;;4.70;99.90;;;3.46;83.86;93347.91;10342213;28;1695;-84
2021/01/23 01:49:43;;;;;;;;;;;5.80;99.90;;;3.44;84.90;93348.19;10340736;28;1986;-85
2021/01/23 01:54:45;;;;;;;;;;;4.50;99.90;;;3.38;85.96;93378.56;10322278;28;1734;-86
2021/01/23 01:59:48;;;;;;;;;;;6.10;99.90;;;3.38;86.92;93391.84;10346138;28;2021;-87
2021/01/23 02:04:50;;;;;;;;;;;4.40;99.90;;;3.34;86.32;93408.63;10312392;28;1712;-86
2021/01/23 02:09:52;;;;;;;;;;;4.50;99.90;;;3.23;86.83;93422.03;10337773;28;1895;-87
2021/01/23 02:14:53;;;;;;;;;;;4.30;99.90;;;3.07;88.28;93436.56;10312797;28;1610;-84
2021/01/23 02:19:55;;;;;;;;;;;5.70;99.90;;;2.75;87.81;93447.00;10330581;28;2047;-86
2021/01/23 02:24:57;;;;;;;;;;;4.90;99.90;;;2.20;89.09;93465.00;10368397;28;2065;-84
2021/01/23 02:29:59;;;;;;;;;;;4.30;99.90;;;1.92;89.22;93483.25;10332854;28;1985;-84
2021/01/23 02:35:03;;;;;;;;;;;4.60;99.90;;;1.63;90.43;93489.22;10343728;28;2206;-82
2021/01/23 02:40:06;;;;;;;;;;;2.80;99.90;;;1.54;90.86;93505.97;10373073;28;2080;-84
2021/01/23 02:45:08;;;;;;;;;;;2.50;99.90;;;1.44;91.53;93522.69;10315950;28;1712;-84
2021/01/23 02:50:10;;;;;;;;;;;2.70;99.90;;;1.39;91.95;93525.34;10314027;28;1973;-84
2021/01/23 02:55:15;;;;;;;;;;;2.40;99.90;;;1.35;91.88;93535.72;10334776;28;2098;-84
2021/01/23 03:00:16;;;;;;;;;;;2.60;99.90;;;1.20;91.46;93559.56;10330488;28;2194;-85
2021/01/23 03:05:18;;;;;;;;;;;2.20;99.90;;;1.11;91.77;93587.66;10343121;28;2161;-84
2021/01/23 03:10:20;;;;;;;;;;;2.50;99.90;;;0.95;92.17;93563.06;10333624;28;2019;-83
2021/01/23 03:15:22;;;;;;;;;;;2.10;99.90;;;0.80;92.37;93598.25;10353682;28;2052;-85
2021/01/23 03:20:26;;;;;;;;;;;;;;;0.68;92.38;93620.75;10343557;28;1416;-82
2021/01/23 03:25:28;;;;;;;;;;;1.80;99.90;;;0.63;92.74;93655.09;10323792;28;1607;-84
2021/01/23 03:30:30;;;;;;;;;;;1.60;99.90;;;0.59;92.98;93676.00;10353726;28;1895;-84
2021/01/23 03:35:31;;;;;;;;;;;1.60;99.90;;;0.49;93.35;93684.69;10359994;28;2157;-84
2021/01/23 03:40:33;;;;;;;;;;;2.20;99.90;;;0.47;93.48;93667.53;10375659;28;2104;-84
2021/01/23 03:45:35;;;;;;;;;;;1.40;99.90;;;0.39;93.66;93660.91;10354722;28;2096;-84
2021/01/23 03:50:37;;;;;;;;;;;1.50;99.90;;;0.37;93.54;93672.78;10365833;28;2139;-84
2021/01/23 03:55:39;;;;;;;;;;;1.30;99.90;;;0.32;93.32;93697.38;10389101;28;2276;-85
2021/01/23 04:00:41;;;;;;;;;;;1.80;99.90;;;0.32;93.41;93721.16;10343188;28;2023;-85
2021/01/23 04:05:43;;;;;;;;;;;1.30;99.90;;;0.40;93.20;93723.28;10355066;28;2104;-84
2021/01/23 04:10:47;;;;;;;;;;;1.30;99.90;;;0.43;92.72;93719.31;10323497;28;1966;-83
2021/01/23 04:15:51;;;;;;;;;;;2.60;99.90;;;0.43;92.67;93717.47;10322043;28;1274;-85
2021/01/23 04:20:53;;;;;;;;;;;1.40;99.90;;;0.43;92.57;93714.81;10347715;28;1914;-83
2021/01/23 04:25:55;;;;;;;;;;;1.70;99.90;;;0.40;92.65;93715.34;10350017;28;2016;-81
2021/01/23 04:30:56;;;;;;;;;;;1.40;99.90;;;0.40;92.46;93743.63;10355875;28;1974;-83
2021/01/23 04:35:58;;;;;;;;;;;1.40;99.90;;;0.36;92.28;93751.28;10350566;28;2108;-84
2021/01/23 04:41:00;;;;;;;;;;;1.30;99.90;;;0.32;92.52;93771.38;10346307;28;1812;-83
2021/01/23 04:46:04;;;;;;;;;;;1.30;99.90;;;0.36;92.23;93798.84;10346315;28;1867;-85
2021/01/23 04:51:06;;;;;;;;;;;1.90;99.90;;;0.30;92.02;93807.81;10348737;28;2096;-81
2021/01/23 04:56:08;;;;;;;;;;;1.20;99.90;;;0.34;92.72;93814.19;10387535;28;1789;-81
2021/01/23 05:01:11;;;;;;;;;;;2.00;99.90;;;0.23;92.60;93815.97;10348833;28;1687;-83
2021/01/23 05:06:14;;;;;;;;;;;1.20;99.90;;;0.23;92.38;93815.19;10350866;28;2381;-85
2021/01/23 05:11:16;;;;;;;;;;;1.20;99.90;;;0.23;92.89;93815.19;10355965;28;1955;-84
2021/01/23 05:16:18;;;;;;;;;;;3.20;99.90;;;0.24;92.93;93822.06;10352924;28;2015;-83
2021/01/23 05:21:20;;;;;;;;;;;3.40;99.90;;;0.22;93.19;93827.59;10326793;28;2062;-82
2021/01/23 05:26:22;;;;;;;;;;;1.20;99.90;;;0.18;93.18;93838.94;10324233;28;2088;-83
2021/01/23 05:31:24;;;;;;;;;;;1.20;99.90;;;0.19;93.13;93836.06;10355371;28;2167;-84
2021/01/23 05:36:26;;;;;;;;;;;1.20;99.90;;;0.18;93.46;93837.06;10347806;28;1608;-84
2021/01/23 05:41:28;;;;;;;;;;;2.60;99.90;;;0.27;93.17;93863.84;10303690;28;2079;-85
2021/01/23 05:46:29;;;;;;;;;;;1.20;99.90;;;0.23;92.96;93887.31;10313719;28;1643;-85
2021/01/23 05:51:32;;;;;;;;;;;1.20;99.90;;;0.22;92.94;93879.66;10330178;28;2096;-84
2021/01/23 05:56:33;;;;;;;;;;;1.20;99.90;;;0.26;93.04;93900.03;10299553;28;1877;-81
2021/01/23 06:01:35;;;;;;;;;;;1.10;99.90;;;0.22;92.76;93920.09;10323203;28;2098;-85
2021/01/23 06:06:37;;;;;;;;;;;1.10;99.90;;;0.24;92.94;93939.13;10355257;28;2110;-85
2021/01/23 06:11:40;;;;;;;;;;;2.10;99.90;;;0.27;92.35;93943.09;10345248;28;1879;-85
2021/01/23 06:16:44;;;;;;;;;;;1.20;99.90;;;0.29;92.76;93946.28;10320811;28;2115;-80
2021/01/23 06:21:46;;;;;;;;;;;1.20;99.90;;;0.25;92.71;93958.41;10315957;28;1811;-82
2021/01/23 06:26:48;;;;;;;;;;;1.70;99.90;;;0.25;93.07;93971.63;10364019;28;1649;-86
2021/01/23 06:31:50;;;;;;;;;;;1.20;99.90;;;0.25;92.76;93976.91;10323503;28;1962;-84
2021/01/23 06:36:52;;;;;;;;;;;1.20;99.90;;;0.28;93.01;93984.34;10342096;28;2119;-84
2021/01/23 06:41:54;;;;;;;;;;;1.20;99.90;;;0.26;92.78;93981.16;10326969;28;2008;-84
2021/01/23 06:46:56;;;;;;;;;;;1.30;99.90;;;0.31;92.75;93997.03;10347212;28;1928;-83
2021/01/23 06:51:59;;;;;;;;;;;1.30;99.90;;;0.38;92.64;94008.22;10335290;28;2091;-85
2021/01/23 06:57:03;;;;;;;;;;;1.40;99.90;;;0.45;92.38;94000.88;10330506;28;1198;-83
2021/01/23 07:02:05;;;;;;;;;;;1.40;99.90;;;0.45;92.05;94008.00;10352571;28;2214;-85
2021/01/23 07:07:07;;;;;;;;;;;1.80;99.90;;;0.52;92.41;94019.94;10346480;28;2308;-84
2021/01/23 07:12:10;;;;;;;;;;;1.40;99.90;;;0.49;91.15;94031.00;10323216;28;2070;-86
2021/01/23 07:17:12;;;;;;;;;;;1.50;99.90;;;0.50;91.25;94037.88;10355417;28;2441;-85
2021/01/23 07:22:14;;;;;;;;;;;2.00;99.90;;;0.58;91.59;94049.06;10340354;28;1574;-83
2021/01/23 07:27:16;;;;;;;;;;;1.50;99.90;;;0.58;91.07;94054.34;10333894;28;2438;-85
2021/01/23 07:32:18;;;;;;;;;;;1.50;99.90;;;0.56;91.21;94061.72;10352758;28;2148;-84
2021/01/23 07:37:20;;;;;;;;;;;1.50;99.90;;;0.66;91.23;94070.53;10335510;28;2141;-85
2021/01/23 07:42:22;;;;;;;;;;;2.10;99.90;;;0.71;91.18;94080.38;10347944;28;2331;-85
2021/01/23 07:47:23;;;;;;;;;;;1.60;99.90;;;0.74;91.33;94074.56;10330720;28;2321;-84
2021/01/23 07:52:26;;;;;;;;;;;3.20;99.90;;;0.68;91.36;94080.84;10348315;28;2150;-83
2021/01/23 07:57:27;;;;;;;;;;;1.70;99.90;;;0.69;91.63;94082.44;10351641;28;2235;-85
2021/01/23 08:02:29;;;;;;;;;;;1.60;99.90;;;0.70;91.79;94084.03;10368859;28;2061;-84
2021/01/23 08:07:33;;;;;;;;;;;3.70;99.90;;;0.70;92.05;94089.31;10367440;28;1312;-82
2021/01/23 08:12:35;;;;;;;;;;;2.20;99.90;;;0.81;91.93;94091.78;10364994;28;2049;-82
2021/01/23 08:17:38;;;;;;;;;;;2.00;99.90;;;0.75;91.69;94097.31;10326955;28;2272;-84
2021/01/23 08:22:40;;;;;;;;;;;1.70;99.90;;;0.80;91.98;94097.34;10333699;28;2076;-85
2021/01/23 08:27:42;;;;;;;;;;;2.30;99.90;;;0.80;92.05;94095.50;10359654;28;1864;-84
2021/01/23 08:32:44;;;;;;;;;;;1.70;99.90;;;0.88;91.86;94102.16;10371547;28;1890;-85
2021/01/23 08:37:46;;;;;;;;;;;1.80;99.90;;;0.93;91.74;94094.25;10365704;28;1939;-85
2021/01/23 08:42:48;;;;;;;;;;;1.80;99.90;;;1.00;91.33;94097.50;10373801;28;1977;-84
2021/01/23 08:47:50;;;;;;;;;;;1.90;99.90;;;1.12;90.99;94099.16;10364621;28;1844;-83
2021/01/23 08:52:52;;;;;;;;;;;2.00;99.90;;;1.22;91.04;94096.56;10357524;28;2120;-85
2021/01/23 08:57:58;;;;;;;;;;;2.80;99.90;;;1.36;90.23;94089.75;10338732;28;2101;-82
2021/01/23 09:03:03;;;;;;;;;;;2.20;99.90;;;1.51;89.18;94084.53;10359761;28;2105;-80
2021/01/23 09:08:05;;;;;;;;;;;3.40;99.90;;;1.64;89.18;94080.63;10341022;28;2089;-84
2021/01/23 09:13:07;;;;;;;;;;;2.50;99.90;;;1.68;87.49;94070.31;10384668;28;2449;-84
2021/01/23 09:18:09;;;;;;;;;;;4.20;99.90;;;1.81;87.77;94067.19;10367146;28;2478;-85
2021/01/23 09:23:11;;;;;;;;;;;3.70;99.90;;;1.85;87.53;94062.97;10340752;28;1980;-85
2021/01/23 09:28:15;;;;;;;;;;;2.80;99.90;;;1.91;85.80;94072.50;10375862;28;1362;-85
2021/01/23 09:33:17;;;;;;;;;;;3.90;99.90;;;2.15;87.13;94078.13;10345626;28;1952;-85
2021/01/23 09:38:18;;;;;;;;;;;3.00;99.90;;;2.37;86.14;94081.34;10342354;28;1606;-84
2021/01/23 09:43:20;;;;;;;;;;;3.30;99.90;;;2.55;85.16;94088.00;10362008;28;2036;-79
2021/01/23 09:48:22;;;;;;;;;;;3.40;99.90;;;2.68;84.35;94087.47;10325966;28;2094;-85
2021/01/23 09:53:25;;;;;;;;;;;3.60;99.90;;;2.82;82.28;94073.66;10337433;28;2000;-79
2021/01/23 09:58:26;;;;;;;;;;;3.70;99.90;;;2.84;82.81;94068.88;10344185;28;2009;-80
2021/01/23 10:03:28;;;;;;;;;;;3.70;99.90;;;2.75;84.17;94078.44;10361286;28;1965;-82
2021/01/23 10:08:30;;;;;;;;;;;4.00;99.90;;;2.83;82.67;94077.91;10333072;28;1818;-82
2021/01/23 10:13:32;;;;;;;;;;;5.00;99.90;;;2.78;83.22;94072.59;10357819;28;1955;-82
2021/01/23 10:18:35;;;;;;;;;;;3.80;99.90;;;2.74;83.80;94058.28;10390851;28;1937;-84
2021/01/23 10:23:38;;;;;;;;;;;4.80;99.90;;;2.54;83.78;94067.81;10365555;28;1847;-86
2021/01/23 10:28:40;;;;;;;;;;;4.50;99.90;;;2.45;84.70;94061.47;10373110;28;2181;-81
2021/01/23 10:33:42;;;;;;;;;;;3.50;99.90;;;2.31;82.54;94053.22;10370513;28;1891;-84
2021/01/23 10:38:45;;;;;;;;;;;4.10;99.90;;;2.34;83.10;94052.69;10337673;28;1966;-84
2021/01/23 10:43:47;;;;;;;;;;;3.50;99.90;;;2.39;83.20;94047.41;10338457;28;1651;-83
2021/01/23 10:48:48;;;;;;;;;;;4.30;99.90;;;2.52;82.48;94040.78;10349531;28;1779;-82
2021/01/23 10:53:50;;;;;;;;;;;3.80;99.90;;;2.74;82.07;94037.06;10333140;28;1900;-84
2021/01/23 10:58:54;;;;;;;;;;;4.60;99.90;;;3.02;81.49;94033.81;10348474;28;1899;-85
2021/01/23 11:03:56;;;;;;;;;;;3.90;99.90;;;3.15;80.63;94022.66;10360477;28;1962;-84
2021/01/23 11:08:57;;;;;;;;;;;4.00;99.90;;;3.17;81.38;94020.50;10349148;28;1985;-84
2021/01/23 11:13:59;;;;;;;;;;;4.10;99.90;;;3.24;79.90;94017.56;10326964;28;1949;-82
2021/01/23 11:19:03;;;;;;;;;;;5.90;99.90;;;3.29;78.67;93996.31;10341477;28;1951;-82
2021/01/23 11:24:06;;;;;;;;;;;4.80;99.90;;;3.37;79.12;93994.94;10343583;28;2036;-84
2021/01/23 11:29:12;;;;;;;;;;;4.30;99.90;;;3.40;78.50;93997.06;10348739;28;1960;-83
2021/01/23 11:34:19;;;;;;;;;;;4.40;99.90;;;3.45;79.19;93989.09;10331521;28;1871;-84
2021/01/23 11:39:28;;;;;;;;;;;4.70;99.90;;;3.67;79.62;93983.41;10370558;28;1832;-83
2021/01/23 11:44:30;;;;;;;;;;;4.60;99.90;;;3.79;75.38;93982.00;10347383;28;1959;-83
2021/01/23 11:49:32;;;;;;;;;;;5.00;99.90;;;4.24;78.04;93985.44;10355473;28;1947;-85
2021/01/23 11:54:33;;;;;;;;;;;5.40;99.90;;;4.45;76.82;93975.41;10350681;28;1670;-84
2021/01/23 11:59:35;;;;;;;;;;;5.20;99.90;;;4.41;76.51;93965.63;10348655;28;1996;-83
2021/01/23 12:04:37;;;;;;;;;;;6.50;99.90;;;4.59;75.75;93949.78;10342536;28;1816;-83
2021/01/23 12:09:39;;;;;;;;;;;5.80;99.90;;;4.59;74.57;93930.34;10347525;28;1985;-83
2021/01/23 12:14:40;;;;;;;;;;;5.50;99.90;;;4.65;74.12;93934.56;10334710;28;2032;-85
2021/01/23 12:19:42;;;;;;;;;;;5.60;99.90;;;4.88;74.66;93933.75;10335746;28;1582;-83
2021/01/23 12:24:45;;;;;;;;;;;5.70;99.90;;;4.58;74.05;93921.56;10332826;28;1326;-85
2021/01/23 12:29:46;;;;;;;;;;;6.60;99.90;;;4.91;73.20;93907.66;10367233;28;1964;-84
2021/01/23 12:34:50;;;;;;;;;;;6.90;99.90;;;4.68;73.30;93904.69;10367963;28;1551;-83
2021/01/23 12:39:52;;;;;;;;;;;6.80;99.90;;;4.79;72.76;93894.75;10359384;28;1399;-86
2021/01/23 12:44:55;;;;;;;;;;;5.80;99.90;;;4.95;73.47;93882.84;10337369;28;1659;-85
2021/01/23 12:49:56;;;;;;;;;;;5.80;99.90;;;4.96;73.45;93880.97;10349030;28;1894;-85
2021/01/23 12:54:59;;;;;;;;;;;7.30;99.90;;;4.59;71.18;93880.59;10353228;28;1641;-87
2021/01/23 13:00:04;;;;;;;;;;;5.80;99.90;;;4.57;72.80;93876.59;10339819;28;1430;-86
2021/01/23 13:05:06;;;;;;;;;;;5.70;99.90;;;4.55;72.74;93876.09;10353714;28;1181;-82
2021/01/23 13:10:08;;;;;;;;;;;5.60;99.90;;;4.42;71.15;93863.47;10344003;28;1919;-87
2021/01/23 13:15:11;;;;;;;;;;;6.20;99.90;;;4.42;73.25;93866.91;10335003;28;1227;-87
2021/01/23 13:20:13;;;;;;;;;;;5.90;99.90;;;4.47;73.80;93858.09;10330464;28;1740;-88
2021/01/23 13:25:15;;;;;;;;;;;6.10;99.90;;;4.56;72.93;93843.09;10336878;28;1254;-85
2021/01/23 13:30:19;;;;;;;;;;;5.60;99.90;;;4.69;73.82;93837.09;10332822;28;1989;-88
2021/01/23 13:35:21;;;;;;;;;;;6.60;99.90;;;4.49;72.59;93845.28;10355166;28;1625;-86
2021/01/23 13:40:22;;;;;;;;;;;6.00;99.90;;;4.43;73.67;93825.13;10357640;28;1301;-83
2021/01/23 13:45:24;;;;;;;;;;;5.50;99.90;;;4.33;71.40;93834.81;10354479;28;1557;-86
2021/01/23 13:50:26;;;;;;;;;;;5.50;99.90;;;4.28;70.93;93840.19;10354542;28;1918;-89
2021/01/23 13:55:28;;;;;;;;;;;5.50;99.90;;;4.25;72.73;93837.28;10330745;28;1342;-87
2021/01/23 14:00:30;;;;;;;;;;;5.30;99.90;;;4.27;72.14;93835.94;10331842;28;1775;-86
2021/01/23 14:05:31;;;;;;;;;;;5.70;99.90;;;4.32;71.14;93824.44;10344655;28;1876;-87
2021/01/23 14:10:33;;;;;;;;;;;5.30;99.90;;;4.49;71.96;93821.34;10354466;28;1898;-88
2021/01/23 14:15:35;;;;;;;;;;;6.40;99.90;;;4.50;71.97;93813.06;10379205;28;1381;-87
2021/01/23 14:20:38;;;;;;;;;;;6.50;99.90;;;4.43;69.98;93807.31;10346602;28;1709;-86
2021/01/23 14:25:41;;;;;;;;;;;5.50;99.90;;;4.40;71.15;93801.78;10353077;28;1541;-86
2021/01/23 14:30:42;;;;;;;;;;;6.20;99.90;;;4.35;68.69;93791.97;10345756;28;1965;-87
2021/01/23 14:35:44;;;;;;;;;;;5.40;99.90;;;4.34;71.87;93793.06;10344752;28;1538;-85
2021/01/23 14:40:46;;;;;;;;;;;5.30;99.90;;;4.16;69.57;93791.13;10356019;28;1941;-85
2021/01/23 14:45:48;;;;;;;;;;;5.30;99.90;;;3.87;67.49;93788.47;10355825;28;1978;-87
2021/01/23 14:50:50;;;;;;;;;;;5.90;99.90;;;3.59;67.92;93790.81;10341092;28;1948;-83
2021/01/23 14:55:51;;;;;;;;;;;4.80;99.90;;;3.47;70.62;93779.75;10371948;28;1517;-83
2021/01/23 15:00:53;;;;;;;;;;;6.40;99.90;;;3.54;71.31;93774.91;10355815;28;1253;-83
2021/01/23 15:05:55;;;;;;;;;;;6.70;99.90;;;3.54;70.95;93774.91;10367695;28;1972;-86
2021/01/23 15:10:57;;;;;;;;;;;4.60;99.90;;;3.47;68.64;93774.44;10356514;28;1981;-83
2021/01/23 15:15:59;;;;;;;;;;;6.70;99.90;;;3.30;69.30;93766.06;10369465;28;1636;-85
2021/01/23 15:21:03;;;;;;;;;;;4.40;99.90;;;3.19;70.16;93765.38;10356374;28;1616;-84
2021/01/23 15:26:05;;;;;;;;;;;4.70;99.90;;;3.13;69.54;93769.13;10346055;28;1195;-86
2021/01/23 15:31:07;;;;;;;;;;;5.00;99.90;;;3.06;70.20;93769.44;10350916;28;1989;-85
2021/01/23 15:36:09;;;;;;;;;;;5.50;99.90;;;2.95;70.91;93766.03;10371500;28;1192;-87
2021/01/23 15:41:11;;;;;;;;;;;5.50;99.90;;;2.85;70.30;93760.78;10373027;28;1506;-84
2021/01/23 15:46:13;;;;;;;;;;;4.70;99.90;;;2.72;71.24;93754.22;10362660;28;1164;-83
2021/01/23 15:51:15;;;;;;;;;;;4.80;99.90;;;2.72;70.71;93748.91;10359064;28;1887;-84
2021/01/23 15:56:17;;;;;;;;;;;4.70;99.90;;;2.68;72.23;93744.44;10342233;28;1663;-85
2021/01/23 16:01:20;;;;;;;;;;;3.80;99.90;;;2.59;70.65;93741.56;10346364;28;1838;-84
2021/01/23 16:06:22;;;;;;;;;;;4.40;99.90;;;2.55;72.35;93743.19;10342598;28;1510;-84
2021/01/23 16:11:24;;;;;;;;;;;4.20;99.90;;;2.49;71.51;93746.13;10347669;28;2000;-84
2021/01/23 16:16:32;;;;;;;;;;;3.60;99.90;;;2.42;72.56;93735.84;10330367;28;2005;-85
2021/01/23 16:21:35;;;;;;;;;;;3.90;99.90;;;2.33;75.40;93740.09;10327005;28;1985;-84
2021/01/23 16:26:37;;;;;;;;;;;3.90;99.90;;;2.17;77.09;93726.91;10330059;28;1978;-84
2021/01/23 16:31:42;;;;;;;;;;;3.80;99.90;;;2.02;78.75;93729.59;10351298;28;2054;-85
2021/01/23 16:36:45;;;;;;;;;;;3.20;99.90;;;1.89;80.30;93735.47;10359558;28;1624;-86
2021/01/23 16:41:54;;;;;;;;;;;4.30;99.90;;;1.87;80.58;93737.59;10357600;28;1840;-85
2021/01/23 16:47:01;;;;;;;;;;;3.70;99.90;;;1.86;81.13;93741.31;10353855;28;1931;-84
2021/01/23 16:52:05;;;;;;;;;;;2.90;99.90;;;1.93;81.27;93744.47;10328480;28;1902;-85
2021/01/23 16:57:09;;;;;;;;;;;2.90;99.90;;;1.88;81.40;93728.59;10347974;28;1919;-85
2021/01/23 17:02:12;;;;;;;;;;;2.90;99.90;;;1.88;80.94;93712.69;10332297;28;1971;-85
2021/01/23 17:07:14;;;;;;;;;;;3.30;99.90;;;1.81;81.10;93701.59;10361232;28;2025;-83
2021/01/23 17:12:16;;;;;;;;;;;4.90;99.90;;;1.82;81.55;93708.47;10323058;28;1978;-83
2021/01/23 17:23:32;;;;;;;;;;;2.90;99.90;;;1.71;81.29;93675.91;10275176;28;2236;-85
2021/01/23 17:41:03;;;;;;;;;;;3.90;99.90;;;1.47;83.01;93665.13;10322368;28;1823;-84
2021/01/23 17:46:16;;;;;;;;;;;2.50;99.90;;;1.44;82.74;93676.25;10338993;28;1750;-85
2021/01/23 17:51:19;;;;;;;;;;;2.60;99.90;;;1.37;82.65;93673.09;10362815;28;2026;-83
2021/01/23 17:56:21;;;;;;;;;;;3.60;99.90;;;1.35;82.31;93662.75;10354042;28;1932;-82
2021/01/23 18:01:23;;;;;;;;;;;3.30;99.90;;;1.38;81.90;93661.44;10354186;28;2362;-86
2021/01/23 18:12:02;;;;;;;;;;;2.40;99.90;;;1.22;82.00;93633.41;10358429;28;2002;-87
2021/01/23 18:17:15;;;;;;;;;;;2.40;99.90;;;1.15;81.07;93603.78;10340574;28;1851;-87
2021/01/23 18:47:05;;;;;;;;;;;2.10;99.90;;;0.97;79.94;93599.84;10227182;29;2159;-83
2021/01/23 18:52:11;;;;;;;;;;;2.10;99.90;;;0.97;79.32;93608.56;10238122;28;2177;-81
2021/01/23 18:57:52;;;;;;;;;;;;;;;;;;;;;
2021/01/23 19:09:06;;;;;;;;;;;2.30;99.90;;;1.07;79.62;93613.81;10357600;28;1723;-83
2021/01/23 19:14:17;;;;;;;;;;;3.10;99.90;;;0.99;79.98;93600.34;10342349;28;1967;-81
2021/01/23 19:19:21;;;;;;;;;;;2.20;99.90;;;0.82;80.17;93611.22;10334773;28;1760;-86
2021/01/23 19:24:25;;;;;;;;;;;2.30;99.90;;;0.69;81.18;93611.75;10346690;28;1654;-83
2021/01/23 19:29:27;;;;;;;;;;;3.10;99.90;;;0.71;80.81;93596.44;10350169;28;1990;-85
2021/01/23 19:34:29;;;;;;;;;;;1.70;99.90;;;0.70;80.75;93584.25;10356632;28;1987;-81
2021/01/23 19:39:34;;;;;;;;;;;2.20;99.90;;;0.72;81.19;93585.56;10366841;28;1716;-83
2021/01/23 19:44:38;;;;;;;;;;;1.80;99.90;;;0.81;80.59;93583.19;10368396;28;1617;-84
2021/01/23 19:49:41;;;;;;;;;;;1.80;99.90;;;0.75;80.69;93584.25;10376056;28;1899;-84
2021/01/23 19:54:51;;;;;;;;;;;1.70;99.90;;;0.76;80.16;93578.72;10363491;28;1675;-85
2021/01/23 19:59:58;;;;;;;;;;;2.90;99.90;;;0.65;80.35;93557.81;10356863;28;1982;-85
2021/01/23 20:11:21;;;;;;;;;;;1.60;99.90;;;0.53;81.27;93532.44;10181755;29;1962;-86
2021/01/23 20:16:38;;;;;;;;;;;2.60;99.90;;;0.39;81.43;93528.75;10201896;29;1310;-83
2021/01/23 20:21:41;;;;;;;;;;;2.40;99.90;;;0.30;82.41;93517.13;10203475;29;1909;-82
2021/01/23 20:38:00;;;;;;;;;;;1.60;99.90;;;0.29;82.82;93539.31;10207835;29;1369;-82
2021/01/23 20:43:31;;;;;;;;;;;1.30;99.90;;;0.19;82.68;93542.78;10192309;29;1996;-84
2021/01/23 20:48:34;;;;;;;;;;;1.20;99.90;;;0.17;82.93;93544.88;10320238;28;2123;-84
2021/01/23 20:53:41;;;;;;;;;;;2.40;99.90;;;0.30;82.64;93546.19;10366833;28;2109;-85
2021/01/23 21:05:04;;;;;;;;;;;2.90;99.90;;;0.66;81.44;93535.63;10346715;28;2433;-83
2021/01/23 21:10:10;;;;;;;;;;;3.10;99.90;;;0.84;80.56;93550.13;10372878;28;2070;-84
2021/01/23 21:15:12;;;;;;;;;;;1.70;99.90;;;1.00;79.84;93552.47;10359312;28;2095;-84
2021/01/23 21:25:34;;;;;;;;;;;2.20;99.90;;;1.21;78.82;93557.69;10352256;28;2058;-84
2021/01/23 21:36:39;;;;;;;;;;;3.90;99.90;;;1.29;78.43;93541.28;10360511;28;1194;-83
2021/01/23 21:41:51;;;;;;;;;;;4.10;99.90;;;1.25;79.00;93540.22;10418461;23;3553;-83
2021/01/23 21:47:16;;;;;;;;;;;3.20;99.90;;;1.30;78.85;93533.06;10388549;28;1844;-83
2021/01/23 21:52:18;;;;;;;;;;;3.40;99.90;;;1.29;79.43;93522.75;10407758;28;1895;-84
2021/01/23 21:57:20;;;;;;;;;;;3.20;99.90;;;1.34;79.47;93514.81;10401177;28;1559;-83
2021/01/23 22:02:22;;;;;;;;;;;2.90;99.90;;;1.34;78.72;93512.16;10408613;28;2079;-84
2021/01/23 22:07:24;;;;;;;;;;;2.40;99.90;;;1.22;79.01;93495.78;10394469;28;1886;-81
2021/01/23 22:17:35;;;;;;;;;;;2.20;99.90;;;0.82;80.41;93486.91;10232048;29;1928;-84
2021/01/23 22:22:40;;;;;;;;;;;2.00;99.90;;;0.61;81.05;93482.72;10239139;29;1959;-84
2021/01/23 22:27:42;;;;;;;;;;;2.60;99.90;;;0.49;82.39;93475.88;10240815;29;1990;-83
2021/01/23 22:32:44;;;;;;;;;;;3.60;99.90;;;0.43;82.41;93492.00;10245926;29;1957;-85
2021/01/23 22:37:46;;;;;;;;;;;2.70;99.90;;;0.40;83.45;93489.91;10239997;29;1908;-84
2021/01/23 22:42:50;;;;;;;;;;;3.10;99.90;;;0.31;83.45;93488.84;10270110;29;1735;-84
2021/01/23 22:47:52;;;;;;;;;;;2.60;99.90;;;0.26;83.90;93492.31;10279173;28;1889;-85
2021/01/23 22:52:54;;;;;;;;;;;2.30;99.90;;;0.22;83.79;93491.22;10286766;28;1954;-83
2021/01/23 22:57:56;;;;;;;;;;;1.40;99.90;;;0.17;83.92;93501.81;10279036;28;2013;-83
2021/01/23 23:03:00;;;;;;;;;;;3.50;99.90;;;0.19;83.86;93494.41;10276194;28;1966;-83
2021/01/23 23:08:07;;;;;;;;;;;1.30;99.90;;;0.20;84.34;93494.16;10280309;28;1693;-84
2021/01/23 23:13:12;;;;;;;;;;;3.20;99.90;;;0.15;84.18;93488.06;10272007;28;1883;-84
2021/01/23 23:18:15;;;;;;;;;;;1.20;99.90;;;0.12;84.39;93475.38;10261868;29;1943;-84
2021/01/23 23:23:17;;;;;;;;;;;2.70;99.90;;;0.07;84.84;93481.47;10285303;28;2013;-84
2021/01/23 23:28:22;;;;;;;;;;;2.70;99.90;;;0.03;85.17;93476.97;10286326;28;2075;-84
2021/01/23 23:33:24;;;;;;;;;;;1.40;99.90;;;0.04;85.54;93473.28;10268999;28;1973;-83
2021/01/23 23:38:26;;;;;;;;;;;2.80;99.90;;;0.03;85.52;93458.47;10287126;29;2089;-84
2021/01/23 23:43:28;;;;;;;;;;;2.80;99.90;;;-0.06;85.37;93452.94;10282811;28;1831;-83
2021/01/23 23:48:30;;;;;;;;;;;2.60;99.90;;;-0.04;85.61;93441.06;10267889;29;2064;-82
2021/01/23 23:53:34;;;;;;;;;;;1.20;99.90;;;-0.03;85.19;93437.34;10269778;29;2144;-83
2021/01/23 23:58:41;;;;;;;;;;;2.40;99.90;;;0.17;85.25;93451.59;10292110;29;2064;-83
